createdAt,value
2017-08-31T00:00:06.542Z,93.60
2017-08-31T00:02:35.425Z,93.70
2017-08-31T00:05:04.966Z,93.70
2017-08-31T00:07:33.691Z,93.60
2017-08-31T00:10:03.966Z,93.90
2017-08-31T00:12:34.238Z,93.60
2017-08-31T00:15:03.435Z,93.60
2017-08-31T00:17:32.982Z,93.20
2017-08-31T00:20:02.953Z,93.20
2017-08-31T00:22:33.950Z,93.30
2017-08-31T00:25:03.053Z,93.30
2017-08-31T00:27:32.098Z,93.50
2017-08-31T00:30:02.170Z,94.30
2017-08-31T00:32:31.670Z,94.80
2017-08-31T00:35:12.949Z,95.40
2017-08-31T00:37:40.461Z,95.50
2017-08-31T00:40:07.970Z,95.50
2017-08-31T00:42:35.953Z,95.80
2017-08-31T00:45:04.525Z,95.70
2017-08-31T00:47:32.977Z,95.60
2017-08-31T00:50:02.205Z,95.60
2017-08-31T00:52:31.603Z,96.00
2017-08-31T00:55:07.569Z,96.50
2017-08-31T00:57:35.712Z,96.20
2017-08-31T01:00:04.461Z,96.50
2017-08-31T01:02:33.454Z,96.20
2017-08-31T01:05:04.243Z,96.20
2017-08-31T01:07:34.729Z,96.70
2017-08-31T01:10:02.961Z,96.00
2017-08-31T01:12:32.066Z,95.90
2017-08-31T01:15:03.211Z,95.90
2017-08-31T01:17:33.154Z,96.20
2017-08-31T01:20:01.801Z,95.80
2017-08-31T01:22:41.017Z,95.70
2017-08-31T01:25:08.533Z,95.80
2017-08-31T01:27:36.073Z,95.70
2017-08-31T01:30:05.693Z,95.50
2017-08-31T01:32:33.504Z,95.40
2017-08-31T01:35:02.943Z,95.70
2017-08-31T01:37:33.145Z,95.90
2017-08-31T01:40:12.761Z,96.40
2017-08-31T01:42:40.273Z,95.70
2017-08-31T01:45:07.771Z,95.40
2017-08-31T01:47:46.392Z,95.60
2017-08-31T01:50:13.956Z,95.10
2017-08-31T01:52:41.505Z,95.20
2017-08-31T01:55:09.378Z,95.30
2017-08-31T01:57:37.126Z,94.80
2017-08-31T02:00:06.678Z,94.60
2017-08-31T02:02:37.065Z,94.60
2017-08-31T02:05:04.564Z,94.90
2017-08-31T02:07:32.125Z,94.80
2017-08-31T02:09:59.637Z,94.70
2017-08-31T02:12:37.805Z,94.80
2017-08-31T02:15:05.309Z,94.80
2017-08-31T02:17:32.857Z,94.80
2017-08-31T02:20:00.360Z,94.70
2017-08-31T02:22:28.222Z,94.60
2017-08-31T02:24:56.909Z,94.40
2017-08-31T02:27:25.951Z,93.70
2017-08-31T02:29:53.549Z,93.80
2017-08-31T02:32:22.448Z,93.80
2017-08-31T02:34:53.075Z,93.80
2017-08-31T02:37:23.267Z,93.80
2017-08-31T02:39:55.182Z,94.00
2017-08-31T02:42:24.623Z,93.90
2017-08-31T02:44:53.198Z,93.60
2017-08-31T02:47:23.571Z,94.00
2017-08-31T02:49:53.478Z,94.70
2017-08-31T02:52:21.769Z,94.80
2017-08-31T02:54:53.369Z,95.30
2017-08-31T02:57:22.671Z,94.90
2017-08-31T02:59:52.671Z,95.40
2017-08-31T03:02:22.299Z,95.10
2017-08-31T03:04:54.397Z,95.30
2017-08-31T03:07:24.614Z,95.40
2017-08-31T03:09:54.160Z,95.30
2017-08-31T03:12:24.283Z,95.50
2017-08-31T03:14:53.087Z,95.10
2017-08-31T03:17:23.929Z,95.30
2017-08-31T03:19:53.187Z,95.60
2017-08-31T03:22:22.288Z,95.40
2017-08-31T03:24:53.050Z,95.70
2017-08-31T03:27:23.368Z,95.50
2017-08-31T03:29:52.785Z,95.40
2017-08-31T03:32:23.866Z,95.50
2017-08-31T03:35:02.500Z,95.70
2017-08-31T03:37:30.022Z,95.60
2017-08-31T03:39:57.994Z,95.80
2017-08-31T03:42:35.508Z,96.20
2017-08-31T03:45:02.984Z,96.10
2017-08-31T03:47:31.569Z,96.50
2017-08-31T03:49:59.611Z,96.80
2017-08-31T03:52:28.596Z,97.00
2017-08-31T03:54:59.618Z,97.10
2017-08-31T03:57:27.956Z,97.10
2017-08-31T03:59:57.031Z,97.40
2017-08-31T04:02:28.208Z,96.70
2017-08-31T04:05:01.933Z,96.70
2017-08-31T04:07:30.633Z,96.80
2017-08-31T04:10:01.709Z,96.80
2017-08-31T04:12:31.946Z,97.10
2017-08-31T04:15:00.321Z,97.20
2017-08-31T04:17:29.785Z,97.40
2017-08-31T04:20:00.801Z,97.40
2017-08-31T04:22:29.669Z,97.40
2017-08-31T04:24:58.353Z,97.30
2017-08-31T04:27:26.577Z,97.10
2017-08-31T04:29:55.672Z,97.50
2017-08-31T04:32:25.106Z,97.70
2017-08-31T04:34:54.174Z,97.70
2017-08-31T04:37:21.733Z,97.70
2017-08-31T04:39:49.417Z,97.50
2017-08-31T04:42:28.524Z,97.60
2017-08-31T04:44:56.607Z,97.40
2017-08-31T04:47:24.690Z,97.50
2017-08-31T04:49:52.231Z,97.20
2017-08-31T04:52:19.833Z,97.20
2017-08-31T04:54:47.358Z,97.30
2017-08-31T04:57:14.913Z,97.00
2017-08-31T04:59:42.402Z,97.10
2017-08-31T05:02:09.918Z,97.40
2017-08-31T05:04:37.401Z,97.00
2017-08-31T05:07:05.168Z,96.90
2017-08-31T05:09:32.709Z,96.90
2017-08-31T05:12:00.590Z,97.30
2017-08-31T05:14:28.923Z,97.70
2017-08-31T05:16:58.821Z,97.60
2017-08-31T05:19:28.046Z,97.80
2017-08-31T05:21:56.132Z,97.40
2017-08-31T05:24:34.513Z,97.40
2017-08-31T05:27:02.518Z,97.10
2017-08-31T05:29:30.500Z,97.70
2017-08-31T05:31:58.686Z,97.30
2017-08-31T05:34:27.189Z,97.60
2017-08-31T05:36:58.704Z,97.20
2017-08-31T05:39:27.807Z,97.60
2017-08-31T05:41:56.704Z,97.40
2017-08-31T05:44:25.778Z,97.00
2017-08-31T05:46:53.725Z,97.40
2017-08-31T05:49:21.286Z,97.40
2017-08-31T05:51:49.049Z,97.80
2017-08-31T05:54:16.901Z,97.60
2017-08-31T05:56:44.479Z,97.90
2017-08-31T05:59:11.979Z,97.70
2017-08-31T06:01:39.461Z,98.00
2017-08-31T06:04:06.970Z,98.00
2017-08-31T06:06:34.452Z,97.50
2017-08-31T06:09:02.785Z,97.60
2017-08-31T06:11:30.793Z,97.50
2017-08-31T06:13:58.901Z,97.40
2017-08-31T06:16:26.835Z,97.70
2017-08-31T06:18:55.005Z,97.60
2017-08-31T06:21:22.551Z,97.70
2017-08-31T06:23:50.908Z,97.90
2017-08-31T06:26:18.540Z,97.50
2017-08-31T06:28:46.395Z,97.70
2017-08-31T06:31:14.017Z,97.40
2017-08-31T06:33:41.637Z,97.40
2017-08-31T06:36:09.139Z,97.80
2017-08-31T06:38:36.624Z,97.70
2017-08-31T06:41:04.129Z,97.60
2017-08-31T06:43:31.652Z,97.40
2017-08-31T06:45:59.845Z,97.70
2017-08-31T06:48:28.769Z,97.50
2017-08-31T06:50:56.841Z,97.60
2017-08-31T06:53:24.604Z,97.70
2017-08-31T06:55:52.157Z,97.30
2017-08-31T06:58:19.654Z,97.60
2017-08-31T07:00:47.653Z,97.60
2017-08-31T07:03:15.383Z,97.60
2017-08-31T07:05:42.917Z,97.20
2017-08-31T07:08:10.461Z,97.20
2017-08-31T07:10:37.952Z,97.50
2017-08-31T07:13:05.545Z,97.20
2017-08-31T07:15:33.041Z,97.40
2017-08-31T07:18:01.499Z,97.50
2017-08-31T07:20:30.203Z,97.40
2017-08-31T07:22:58.911Z,97.30
2017-08-31T07:25:27.185Z,97.20
2017-08-31T07:27:55.859Z,97.50
2017-08-31T07:30:23.757Z,98.00
2017-08-31T07:32:51.340Z,97.40
2017-08-31T07:35:19.313Z,97.60
2017-08-31T07:37:47.652Z,97.50
2017-08-31T07:40:15.209Z,96.80
2017-08-31T07:42:42.729Z,96.80
2017-08-31T07:45:10.238Z,96.60
2017-08-31T07:47:37.819Z,96.90
2017-08-31T07:50:05.679Z,96.90
2017-08-31T07:52:33.281Z,96.40
2017-08-31T07:55:01.398Z,96.40
2017-08-31T07:57:29.742Z,95.70
2017-08-31T07:59:58.377Z,95.80
2017-08-31T08:02:30.035Z,95.70
2017-08-31T08:04:59.951Z,95.70
2017-08-31T08:07:29.466Z,96.10
2017-08-31T08:10:01.249Z,95.40
2017-08-31T08:12:30.867Z,95.40
2017-08-31T08:15:00.382Z,95.90
2017-08-31T08:17:29.337Z,95.60
2017-08-31T08:20:00.836Z,96.50
2017-08-31T08:22:39.565Z,96.40
2017-08-31T08:25:07.217Z,96.40
2017-08-31T08:27:34.757Z,96.50
2017-08-31T08:30:02.357Z,96.00
2017-08-31T08:32:29.992Z,95.50
2017-08-31T08:35:00.607Z,95.40
2017-08-31T08:37:29.209Z,94.50
2017-08-31T08:39:57.237Z,94.30
2017-08-31T08:42:25.596Z,93.80
2017-08-31T08:44:53.622Z,94.20
2017-08-31T08:47:21.169Z,94.30
2017-08-31T08:49:48.840Z,94.10
2017-08-31T08:52:17.442Z,93.60
2017-08-31T08:54:45.041Z,94.20
2017-08-31T08:57:12.664Z,94.60
2017-08-31T08:59:40.145Z,92.90
2017-08-31T09:02:07.657Z,92.30
2017-08-31T09:04:35.152Z,92.70
2017-08-31T09:07:02.872Z,93.10
2017-08-31T09:09:30.572Z,91.40
2017-08-31T09:11:58.379Z,90.70
2017-08-31T09:14:26.641Z,90.20
2017-08-31T09:16:56.024Z,89.90
2017-08-31T09:19:24.582Z,89.30
2017-08-31T09:22:02.689Z,89.60
2017-08-31T09:24:30.268Z,88.10
2017-08-31T09:26:59.396Z,88.60
2017-08-31T09:29:29.476Z,88.90
2017-08-31T09:32:00.804Z,88.80
2017-08-31T09:34:31.308Z,89.00
2017-08-31T09:37:03.691Z,88.00
2017-08-31T09:39:33.264Z,88.10
2017-08-31T09:42:12.150Z,90.00
2017-08-31T09:44:39.649Z,90.10
2017-08-31T09:47:07.193Z,89.30
2017-08-31T09:49:38.241Z,89.80
2017-08-31T09:52:06.037Z,87.50
2017-08-31T09:54:44.598Z,87.70
2017-08-31T09:57:12.088Z,87.50
2017-08-31T09:59:39.628Z,86.30
2017-08-31T10:02:07.116Z,86.30
2017-08-31T10:04:35.353Z,85.00
2017-08-31T10:07:05.941Z,82.80
2017-08-31T10:09:34.636Z,82.30
2017-08-31T10:12:05.257Z,82.90
2017-08-31T10:14:35.190Z,82.70
2017-08-31T10:17:03.954Z,83.90
2017-08-31T10:19:34.276Z,84.20
2017-08-31T10:22:05.336Z,82.60
2017-08-31T10:24:33.688Z,82.60
2017-08-31T10:27:04.398Z,85.10
2017-08-31T10:29:34.244Z,86.50
2017-08-31T10:32:04.345Z,86.60
2017-08-31T10:34:35.481Z,87.20
2017-08-31T10:37:05.341Z,87.20
2017-08-31T10:39:33.485Z,86.90
2017-08-31T10:42:02.408Z,86.80
2017-08-31T10:44:34.775Z,86.60
2017-08-31T10:47:04.848Z,87.60
2017-08-31T10:49:33.748Z,86.60
2017-08-31T10:52:05.396Z,86.50
2017-08-31T10:54:35.081Z,82.70
2017-08-31T10:57:05.057Z,82.10
2017-08-31T10:59:35.362Z,79.70
2017-08-31T11:02:06.907Z,80.30
2017-08-31T11:04:35.468Z,78.90
2017-08-31T11:07:05.405Z,76.50
2017-08-31T11:09:35.043Z,75.40
2017-08-31T11:12:08.985Z,72.00
2017-08-31T11:14:37.593Z,69.90
2017-08-31T11:17:05.880Z,71.40
2017-08-31T11:19:34.880Z,69.80
2017-08-31T11:22:05.266Z,68.80
2017-08-31T11:24:35.050Z,67.20
2017-08-31T11:27:04.522Z,66.80
2017-08-31T11:29:35.527Z,67.70
2017-08-31T11:32:11.947Z,68.20
2017-08-31T11:34:39.838Z,66.20
2017-08-31T11:37:07.387Z,67.30
2017-08-31T11:39:36.314Z,67.40
2017-08-31T11:42:06.165Z,67.60
2017-08-31T11:44:36.012Z,67.30
2017-08-31T11:47:05.528Z,66.30
2017-08-31T11:49:34.906Z,64.60
2017-08-31T11:52:05.089Z,65.80
2017-08-31T11:54:34.829Z,68.20
2017-08-31T11:57:05.146Z,66.70
2017-08-31T11:59:34.933Z,67.70
2017-08-31T12:02:13.331Z,66.10
2017-08-31T12:04:40.810Z,68.40
2017-08-31T12:07:08.363Z,69.20
2017-08-31T12:09:36.473Z,70.00
2017-08-31T12:12:14.284Z,70.40
2017-08-31T12:14:42.540Z,72.10
2017-08-31T12:17:10.118Z,71.50
2017-08-31T12:19:37.661Z,70.40
2017-08-31T12:22:15.265Z,66.70
2017-08-31T12:24:42.757Z,63.30
2017-08-31T12:27:10.297Z,63.30
2017-08-31T12:29:37.862Z,61.40
2017-08-31T12:32:05.716Z,57.80
2017-08-31T12:34:37.932Z,55.00
2017-08-31T12:37:08.210Z,54.40
2017-08-31T12:39:38.363Z,57.60
2017-08-31T12:42:07.977Z,58.50
2017-08-31T12:44:38.597Z,59.30
2017-08-31T12:47:08.741Z,60.70
2017-08-31T12:49:38.771Z,59.50
2017-08-31T12:52:08.765Z,61.30
2017-08-31T12:54:37.776Z,60.70
2017-08-31T12:57:07.630Z,63.80
2017-08-31T12:59:38.968Z,65.80
2017-08-31T13:02:07.993Z,65.50
2017-08-31T13:04:38.851Z,65.30
2017-08-31T13:07:08.608Z,63.00
2017-08-31T13:09:36.649Z,61.00
2017-08-31T13:12:07.880Z,57.80
2017-08-31T13:14:41.663Z,56.70
2017-08-31T13:17:09.224Z,54.80
2017-08-31T13:19:37.802Z,55.20
2017-08-31T13:22:07.901Z,56.60
2017-08-31T13:24:37.855Z,55.70
2017-08-31T13:27:07.868Z,57.50
2017-08-31T13:29:43.522Z,59.00
2017-08-31T13:32:11.086Z,59.90
2017-08-31T13:34:39.233Z,60.00
2017-08-31T13:37:07.096Z,59.20
2017-08-31T13:39:38.465Z,56.80
2017-08-31T13:42:08.697Z,53.80
2017-08-31T13:44:37.597Z,51.30
2017-08-31T13:47:07.097Z,50.70
2017-08-31T13:49:34.636Z,48.60
2017-08-31T13:52:02.446Z,50.50
2017-08-31T13:54:30.270Z,51.90
2017-08-31T13:56:59.663Z,50.30
2017-08-31T13:59:33.820Z,48.40
2017-08-31T14:02:02.991Z,47.40
2017-08-31T14:04:32.102Z,48.50
2017-08-31T14:07:01.886Z,49.00
2017-08-31T14:09:31.642Z,47.80
2017-08-31T14:12:01.407Z,47.80
2017-08-31T14:14:32.549Z,49.50
2017-08-31T14:17:03.341Z,52.20
2017-08-31T14:19:34.369Z,51.50
2017-08-31T14:22:03.046Z,54.10
2017-08-31T14:24:31.815Z,55.10
2017-08-31T14:27:01.899Z,55.90
2017-08-31T14:29:33.835Z,54.90
2017-08-31T14:32:03.404Z,54.90
2017-08-31T14:34:31.854Z,53.80
2017-08-31T14:37:00.384Z,55.30
2017-08-31T14:39:30.370Z,53.80
2017-08-31T14:42:02.341Z,54.20
2017-08-31T14:44:31.386Z,55.10
2017-08-31T14:47:00.664Z,55.10
2017-08-31T14:49:30.348Z,55.50
2017-08-31T14:51:59.405Z,55.70
2017-08-31T14:54:28.961Z,55.50
2017-08-31T14:57:09.219Z,55.30
2017-08-31T14:59:36.738Z,56.60
2017-08-31T15:02:04.264Z,55.00
2017-08-31T15:04:31.905Z,55.70
2017-08-31T15:07:01.088Z,56.20
2017-08-31T15:09:39.728Z,55.50
2017-08-31T15:12:07.229Z,55.90
2017-08-31T15:14:34.715Z,55.10
2017-08-31T15:17:02.330Z,54.50
2017-08-31T15:19:30.225Z,54.70
2017-08-31T15:22:00.225Z,54.50
2017-08-31T15:24:28.815Z,54.80
2017-08-31T15:26:59.229Z,54.40
2017-08-31T15:29:27.328Z,54.30
2017-08-31T15:31:55.386Z,55.10
2017-08-31T15:34:23.230Z,55.20
2017-08-31T15:36:51.317Z,55.60
2017-08-31T15:39:19.084Z,57.30
2017-08-31T15:41:46.905Z,59.50
2017-08-31T15:44:14.429Z,60.10
2017-08-31T15:46:41.913Z,60.70
2017-08-31T15:49:09.429Z,60.70
2017-08-31T15:51:36.918Z,63.20
2017-08-31T15:54:04.423Z,63.10
2017-08-31T15:56:31.983Z,64.00
2017-08-31T15:59:00.449Z,64.10
2017-08-31T16:01:31.262Z,64.10
2017-08-31T16:03:59.327Z,64.90
2017-08-31T16:06:27.161Z,65.90
2017-08-31T16:08:54.984Z,65.30
2017-08-31T16:11:22.906Z,65.50
2017-08-31T16:13:50.686Z,65.90
2017-08-31T16:16:19.185Z,65.10
2017-08-31T16:18:46.917Z,65.60
2017-08-31T16:21:14.556Z,65.40
2017-08-31T16:23:42.088Z,66.00
2017-08-31T16:26:09.740Z,65.10
2017-08-31T16:28:37.288Z,65.50
2017-08-31T16:31:04.789Z,65.90
2017-08-31T16:33:32.281Z,65.90
2017-08-31T16:35:59.957Z,65.60
2017-08-31T16:38:28.103Z,65.80
2017-08-31T16:40:55.664Z,64.90
2017-08-31T16:43:23.264Z,63.90
2017-08-31T16:45:50.877Z,64.30
2017-08-31T16:48:19.057Z,64.40
2017-08-31T16:50:46.716Z,65.10
2017-08-31T16:53:14.464Z,65.60
2017-08-31T16:55:41.956Z,64.80
2017-08-31T16:58:09.479Z,65.20
2017-08-31T17:00:37.003Z,65.60
2017-08-31T17:03:04.537Z,65.30
2017-08-31T17:05:32.085Z,65.80
2017-08-31T17:07:59.608Z,65.80
2017-08-31T17:10:27.502Z,66.40
2017-08-31T17:12:55.171Z,66.50
2017-08-31T17:15:22.780Z,66.20
2017-08-31T17:17:50.277Z,66.60
2017-08-31T17:20:17.756Z,66.40
2017-08-31T17:22:45.272Z,66.80
2017-08-31T17:25:12.848Z,67.00
2017-08-31T17:27:40.384Z,68.20
2017-08-31T17:30:07.870Z,66.70
2017-08-31T17:32:35.348Z,67.30
2017-08-31T17:35:02.916Z,67.50
2017-08-31T17:37:30.469Z,67.20
2017-08-31T17:39:58.316Z,67.40
2017-08-31T17:42:25.863Z,69.00
2017-08-31T17:44:53.371Z,67.80
2017-08-31T17:47:20.861Z,68.90
2017-08-31T17:49:48.361Z,68.30
2017-08-31T17:52:15.852Z,68.10
2017-08-31T17:54:43.454Z,67.40
2017-08-31T17:57:11.033Z,67.10
2017-08-31T17:59:38.574Z,68.60
2017-08-31T18:02:06.056Z,68.50
2017-08-31T18:04:33.558Z,67.80
2017-08-31T18:07:01.149Z,68.30
2017-08-31T18:09:28.641Z,68.40
2017-08-31T18:11:56.192Z,70.00
2017-08-31T18:14:23.665Z,71.40
2017-08-31T18:16:51.167Z,73.40
2017-08-31T18:19:18.712Z,74.60
2017-08-31T18:21:46.316Z,75.30
2017-08-31T18:24:13.884Z,76.60
2017-08-31T18:26:41.765Z,77.00
2017-08-31T18:29:09.520Z,77.30
2017-08-31T18:31:37.062Z,78.50
2017-08-31T18:34:04.601Z,78.70
2017-08-31T18:36:32.149Z,79.40
2017-08-31T18:38:59.656Z,79.70
2017-08-31T18:41:27.240Z,80.40
2017-08-31T18:43:54.748Z,80.60
2017-08-31T18:46:22.345Z,80.70
2017-08-31T18:48:49.849Z,81.10
2017-08-31T18:51:17.468Z,81.20
2017-08-31T18:53:44.988Z,81.60
2017-08-31T18:56:12.539Z,81.90
2017-08-31T18:58:40.278Z,81.00
2017-08-31T19:01:07.892Z,81.40
2017-08-31T19:03:35.768Z,81.40
2017-08-31T19:06:03.413Z,81.70
2017-08-31T19:08:30.980Z,81.60
2017-08-31T19:10:58.460Z,82.00
2017-08-31T19:13:25.961Z,81.70
2017-08-31T19:15:53.437Z,82.10
2017-08-31T19:18:20.949Z,82.70
2017-08-31T19:20:48.702Z,83.30
2017-08-31T19:23:16.229Z,83.40
2017-08-31T19:25:45.593Z,83.10
2017-08-31T19:28:14.666Z,84.20
2017-08-31T19:30:42.684Z,84.90
2017-08-31T19:33:10.897Z,85.50
2017-08-31T19:35:38.521Z,85.70
2017-08-31T19:38:06.080Z,86.10
2017-08-31T19:40:33.658Z,86.50
2017-08-31T19:43:01.199Z,86.40
2017-08-31T19:45:28.733Z,86.40
2017-08-31T19:47:56.213Z,87.20
2017-08-31T19:50:23.789Z,86.70
2017-08-31T19:52:51.334Z,87.50
2017-08-31T19:55:18.872Z,87.50
2017-08-31T19:57:46.376Z,88.00
2017-08-31T20:00:23.965Z,87.60
2017-08-31T20:02:51.452Z,87.40
2017-08-31T20:05:18.937Z,87.20
2017-08-31T20:07:46.615Z,87.60
2017-08-31T20:10:14.153Z,87.80
2017-08-31T20:12:43.575Z,88.80
2017-08-31T20:15:12.277Z,88.90
2017-08-31T20:17:40.131Z,89.20
2017-08-31T20:20:07.716Z,89.10
2017-08-31T20:22:35.220Z,89.70
2017-08-31T20:25:02.730Z,89.40
2017-08-31T20:27:30.326Z,89.90
2017-08-31T20:29:57.927Z,89.60
2017-08-31T20:32:25.433Z,89.80
2017-08-31T20:34:52.988Z,89.90
2017-08-31T20:37:20.544Z,90.00
2017-08-31T20:39:48.083Z,90.00
2017-08-31T20:42:15.666Z,90.00
2017-08-31T20:44:43.245Z,90.20
2017-08-31T20:47:10.882Z,90.40
2017-08-31T20:49:38.482Z,90.70
2017-08-31T20:52:06.004Z,90.70
2017-08-31T20:54:33.632Z,90.60
2017-08-31T20:57:01.223Z,90.70
2017-08-31T20:59:28.740Z,90.80
2017-08-31T21:01:56.309Z,90.80
2017-08-31T21:04:23.824Z,90.70
2017-08-31T21:06:51.373Z,90.90
2017-08-31T21:09:18.880Z,90.90
2017-08-31T21:11:46.482Z,90.80
2017-08-31T21:14:14.236Z,90.80
2017-08-31T21:16:41.741Z,91.00
2017-08-31T21:19:09.248Z,90.90
2017-08-31T21:21:36.797Z,91.30
2017-08-31T21:24:04.343Z,91.20
2017-08-31T21:26:31.830Z,91.10
2017-08-31T21:28:59.317Z,91.30
2017-08-31T21:31:26.820Z,91.50
2017-08-31T21:33:54.305Z,91.40
2017-08-31T21:36:21.814Z,91.30
2017-08-31T21:38:49.409Z,91.30
2017-08-31T21:41:16.977Z,91.20
2017-08-31T21:43:44.525Z,91.20
2017-08-31T21:46:12.037Z,91.60
2017-08-31T21:48:39.526Z,91.60
2017-08-31T21:51:07.120Z,91.70
2017-08-31T21:53:34.639Z,91.70
2017-08-31T21:56:02.205Z,92.10
2017-08-31T21:58:29.749Z,92.40
2017-08-31T22:00:57.237Z,91.90
2017-08-31T22:03:24.746Z,91.90
2017-08-31T22:05:52.232Z,92.00
2017-08-31T22:08:19.744Z,92.00
2017-08-31T22:10:47.259Z,91.90
2017-08-31T22:13:14.790Z,91.90
2017-08-31T22:15:42.348Z,92.00
2017-08-31T22:18:09.858Z,91.90
2017-08-31T22:20:37.341Z,92.20
2017-08-31T22:23:04.910Z,92.20
2017-08-31T22:25:32.432Z,92.10
2017-08-31T22:27:59.920Z,92.00
2017-08-31T22:30:27.416Z,92.10
2017-08-31T22:32:54.901Z,92.30
2017-08-31T22:35:22.404Z,91.90
2017-08-31T22:37:49.905Z,92.10
2017-08-31T22:40:17.452Z,92.10
2017-08-31T22:42:45.114Z,92.20
2017-08-31T22:45:12.625Z,92.50
2017-08-31T22:47:40.125Z,92.30
2017-08-31T22:50:07.674Z,91.90
2017-08-31T22:52:35.177Z,92.10
2017-08-31T22:55:14.670Z,92.10
2017-08-31T22:57:54.062Z,92.20
2017-08-31T23:00:21.613Z,92.60
2017-08-31T23:02:49.133Z,92.70
2017-08-31T23:05:16.660Z,92.50
2017-08-31T23:07:44.274Z,92.50
2017-08-31T23:10:11.870Z,92.80
2017-08-31T23:12:39.364Z,92.60
2017-08-31T23:15:06.889Z,92.80
2017-08-31T23:17:34.507Z,93.40
2017-08-31T23:20:02.080Z,93.70
2017-08-31T23:22:29.696Z,93.90
2017-08-31T23:24:57.193Z,93.80
2017-08-31T23:27:24.776Z,93.80
2017-08-31T23:29:52.265Z,93.60
2017-08-31T23:32:19.825Z,93.50
2017-08-31T23:34:47.407Z,93.40
2017-08-31T23:37:15.025Z,93.20
2017-08-31T23:39:42.608Z,92.90
2017-08-31T23:42:10.129Z,92.50
2017-08-31T23:44:37.632Z,92.50
2017-08-31T23:47:05.132Z,92.10
2017-08-31T23:49:32.686Z,92.20
2017-08-31T23:52:00.246Z,91.90
2017-08-31T23:54:27.749Z,91.70
2017-08-31T23:56:55.308Z,91.50
2017-08-31T23:59:22.847Z,91.40
